Aeroporto :
LOGIN :

Iscrizione | Disclaimer

   EN    FR    IT 

 










Sommario :    VFR   VFR Marginale   IFR   IFR Intensivo   IFR Molto Intensivo
Visibilità : 
Base nubi : 
>= 8 km
>= 3000ft
5 / 8 km
1000 / 3000 ft
1500m / 5 km
500 / 1000 ft
800 / 1500m
200 / 500 ft
< 800m
< 200 ft
Simboli :   Temporali  Nebbia  Neve Forte  Precipitazioni Forti  Vento > 20 kt
SIGMETs :   Varie  Temporali  Ghiacco  Turbolenza  Onda orograficha  Ceneri Vulcaniche






- Altitudine del aeroporto : 203 ft
- Codice IATA : XMJ


LFBM - Mont-De-Marsan

ULTIMO METAR :
  • 140730Z AUTO 28005KT 9999 BKN006 19/18 Q1020 BECMG NSC

METARs OBSOLETI :
  • 140700Z AUTO 28006KT 7000 BKN005 18/17 Q1021 BECMG NSC
  • 140630Z AUTO 27004KT 6000 FEW005 17/17 Q1020 NOSIG
  • 140600Z AUTO 26003KT 4800 BR SCT004 SCT200 16/15 Q1020 BECMG 9999 NSW
  • 140530Z AUTO 26004KT 4400 BR FEW004 OVC200 15/14 Q1020 BECMG 9999 NSW
  • 140500Z AUTO 26004KT 4900 BR BKN004 OVC210 14/14 Q1021 BECMG CAVOK

TAF TAF LFBM
Valido dal 14 a 03 ore il 15 a 03 ore UTC


140200Z 1403/1503 27005KT CAVOK



MetMap, La meteo Aeronautica in un colpo d'occhio ! - Copyright ORBIFLY Dicembre 2007 - Disclaimer

ORBIFLY MET'MAP TEAM :

Programmazione e sviluppo : Alexandra Zaïnal
Concezione : Baudouin d'Aumeries
Aiuto per la programmazione : Marc-Olivier Méhu
Supporto tecnico e logistico : Manuel Goepfert
Aiuto per la traduzione : Arnaldo La Scala

Contatto : metmap@orbifly.com




FONTI E CREDITI :

   NOAA